createdAt,value
2018-05-29T00:01:22.726Z,13.62
2018-05-29T00:03:50.163Z,12.65
2018-05-29T00:06:17.730Z,12.43
2018-05-29T00:08:45.183Z,12.85
2018-05-29T00:11:12.634Z,12.27
2018-05-29T00:13:40.091Z,11.68
2018-05-29T00:16:07.562Z,11.95
2018-05-29T00:18:35.014Z,12.90
2018-05-29T00:21:02.488Z,12.07
2018-05-29T00:23:29.966Z,11.90
2018-05-29T00:25:57.431Z,11.85
2018-05-29T00:28:24.880Z,12.75
2018-05-29T00:30:52.359Z,12.07
2018-05-29T00:33:19.817Z,11.80
2018-05-29T00:35:47.283Z,12.55
2018-05-29T00:38:14.730Z,11.75
2018-05-29T00:40:42.206Z,11.90
2018-05-29T00:43:09.675Z,12.32
2018-05-29T00:45:37.157Z,12.10
2018-05-29T00:48:04.623Z,12.85
2018-05-29T00:50:32.065Z,13.55
2018-05-29T00:52:59.515Z,13.45
2018-05-29T00:55:38.868Z,12.82
2018-05-29T00:58:06.319Z,12.20
2018-05-29T01:00:33.793Z,12.25
2018-05-29T01:03:01.278Z,12.93
2018-05-29T01:05:28.820Z,12.37
2018-05-29T01:07:56.284Z,10.90
2018-05-29T01:10:23.736Z,11.57
2018-05-29T01:12:51.211Z,12.52
2018-05-29T01:15:18.665Z,12.43
2018-05-29T01:17:46.122Z,12.05
2018-05-29T01:20:13.590Z,12.32
2018-05-29T01:22:41.044Z,14.15
2018-05-29T01:25:08.499Z,14.13
2018-05-29T01:27:35.948Z,14.55
2018-05-29T01:30:04.183Z,14.20
2018-05-29T01:32:32.411Z,13.57
2018-05-29T01:34:59.868Z,13.13
2018-05-29T01:37:27.319Z,14.90
2018-05-29T01:39:54.780Z,15.23
2018-05-29T01:42:22.243Z,15.77
2018-05-29T01:44:49.681Z,15.57
2018-05-29T01:47:17.144Z,14.82
2018-05-29T01:49:44.667Z,14.32
2018-05-29T01:52:12.141Z,13.82
2018-05-29T01:54:39.605Z,15.70
2018-05-29T01:57:07.065Z,15.27
2018-05-29T01:59:34.535Z,15.68
2018-05-29T02:02:02.003Z,16.17
2018-05-29T02:04:29.518Z,17.55
2018-05-29T02:06:56.931Z,15.68
2018-05-29T02:09:24.387Z,14.63
2018-05-29T02:11:51.855Z,13.85
2018-05-29T02:14:19.312Z,13.75
2018-05-29T02:16:46.771Z,14.57
2018-05-29T02:19:14.240Z,14.63
2018-05-29T02:21:41.714Z,14.55
2018-05-29T02:24:09.180Z,13.35
2018-05-29T02:26:36.643Z,12.68
2018-05-29T02:29:04.090Z,14.38
2018-05-29T02:31:31.558Z,14.63
2018-05-29T02:33:59.015Z,13.40
2018-05-29T02:36:26.477Z,13.30
2018-05-29T02:38:53.933Z,13.00
2018-05-29T02:41:21.401Z,12.48
2018-05-29T02:43:48.862Z,14.07
2018-05-29T02:46:16.340Z,13.05
2018-05-29T02:48:43.798Z,12.40
2018-05-29T02:51:11.257Z,12.30
2018-05-29T02:53:38.725Z,11.65
2018-05-29T02:56:06.198Z,11.65
2018-05-29T02:58:33.654Z,12.37
2018-05-29T03:01:01.137Z,12.02
2018-05-29T03:03:29.357Z,12.35
2018-05-29T03:05:56.828Z,12.25
2018-05-29T03:08:24.280Z,11.40
2018-05-29T03:10:51.748Z,11.10
2018-05-29T03:13:19.238Z,11.02
2018-05-29T03:15:46.703Z,10.20
2018-05-29T03:18:14.181Z,9.38
2018-05-29T03:20:41.642Z,8.30
2018-05-29T03:23:09.102Z,8.50
2018-05-29T03:25:36.549Z,8.15
2018-05-29T03:28:04.021Z,8.73
2018-05-29T03:30:31.465Z,6.95
2018-05-29T03:32:58.925Z,7.50
2018-05-29T03:35:26.381Z,6.68
2018-05-29T03:37:53.850Z,6.47
2018-05-29T03:40:21.320Z,6.30
2018-05-29T03:42:48.779Z,5.95
2018-05-29T03:45:17.121Z,5.90
2018-05-29T03:47:44.576Z,5.60
2018-05-29T03:50:12.785Z,5.20
2018-05-29T03:52:40.238Z,5.32
2018-05-29T03:55:07.691Z,5.25
2018-05-29T03:57:35.144Z,5.40
2018-05-29T04:00:02.588Z,4.68
2018-05-29T04:02:30.814Z,5.00
2018-05-29T04:04:58.279Z,4.70
2018-05-29T04:07:25.740Z,4.68
2018-05-29T04:09:53.207Z,4.70
2018-05-29T04:12:20.637Z,4.70
2018-05-29T04:14:48.090Z,4.35
2018-05-29T04:17:16.313Z,4.25
2018-05-29T04:19:43.764Z,4.43
2018-05-29T04:22:11.225Z,4.28
2018-05-29T04:24:38.679Z,4.10
2018-05-29T04:27:06.148Z,4.40
2018-05-29T04:29:33.601Z,4.37
2018-05-29T04:32:01.060Z,4.50
2018-05-29T04:34:28.510Z,4.35
2018-05-29T04:36:56.733Z,3.90
2018-05-29T04:39:24.180Z,4.12
2018-05-29T04:41:51.641Z,3.80
2018-05-29T04:44:19.078Z,3.75
2018-05-29T04:46:47.306Z,4.00
2018-05-29T04:49:14.782Z,4.15
2018-05-29T04:51:42.239Z,4.40
2018-05-29T04:54:09.713Z,4.30
2018-05-29T04:56:37.717Z,3.87
2018-05-29T04:59:05.248Z,4.60
2018-05-29T05:01:32.702Z,4.20
2018-05-29T05:04:00.166Z,4.30
2018-05-29T05:06:27.604Z,4.55
2018-05-29T05:08:55.089Z,3.78
2018-05-29T05:11:22.519Z,4.12
2018-05-29T05:13:49.968Z,4.37
2018-05-29T05:16:17.429Z,4.22
2018-05-29T05:21:18.801Z,4.25
2018-05-29T05:23:46.251Z,4.22
2018-05-29T05:26:14.465Z,4.12
2018-05-29T05:28:41.915Z,4.05
2018-05-29T05:31:09.364Z,4.53
2018-05-29T05:33:37.588Z,3.60
2018-05-29T05:36:05.045Z,4.60
2018-05-29T05:38:32.506Z,4.05
2018-05-29T05:40:59.971Z,4.03
2018-05-29T05:43:27.417Z,3.90
2018-05-29T05:45:54.877Z,4.25
2018-05-29T05:48:22.340Z,4.18
2018-05-29T05:50:49.834Z,4.28
2018-05-29T05:53:17.280Z,4.07
2018-05-29T05:55:44.730Z,4.22
2018-05-29T05:58:12.190Z,4.15
2018-05-29T06:00:39.644Z,4.47
2018-05-29T06:03:07.088Z,4.70
2018-05-29T06:05:35.312Z,4.68
2018-05-29T06:08:02.797Z,4.45
2018-05-29T06:10:30.234Z,4.20
2018-05-29T06:12:57.696Z,4.50
2018-05-29T06:15:25.135Z,3.95
2018-05-29T06:17:52.698Z,4.03
2018-05-29T06:20:20.199Z,4.60
2018-05-29T06:22:47.649Z,4.62
2018-05-29T06:25:15.117Z,3.70
2018-05-29T06:27:42.571Z,4.00
2018-05-29T06:30:10.021Z,4.10
2018-05-29T06:32:39.170Z,4.80
2018-05-29T06:35:06.625Z,4.37
2018-05-29T06:37:34.073Z,4.53
2018-05-29T06:40:01.558Z,4.20
2018-05-29T06:42:29.013Z,4.60
2018-05-29T06:44:56.517Z,5.03
2018-05-29T06:47:23.929Z,4.43
2018-05-29T06:49:51.715Z,4.00
2018-05-29T06:52:19.168Z,4.05
2018-05-29T06:54:46.632Z,3.80
2018-05-29T06:57:14.080Z,4.10
2018-05-29T06:59:41.536Z,3.90
2018-05-29T07:02:08.983Z,3.80
2018-05-29T07:04:36.426Z,4.35
2018-05-29T07:07:03.920Z,3.87
2018-05-29T07:09:31.333Z,4.18
2018-05-29T07:11:58.785Z,4.43
2018-05-29T07:14:27.027Z,3.90
2018-05-29T07:16:54.455Z,4.22
2018-05-29T07:19:21.908Z,3.67
2018-05-29T07:21:49.357Z,2.80
2018-05-29T07:24:17.569Z,3.10
2018-05-29T07:26:45.011Z,2.80
2018-05-29T07:29:12.460Z,2.53
2018-05-29T07:31:40.669Z,3.20
2018-05-29T07:34:08.130Z,2.78
2018-05-29T07:36:35.584Z,2.95
2018-05-29T07:39:03.081Z,2.80
2018-05-29T07:41:30.513Z,2.75
2018-05-29T07:43:58.745Z,2.70
2018-05-29T07:46:26.197Z,2.60
2018-05-29T07:48:53.646Z,2.90
2018-05-29T07:51:21.088Z,2.85
2018-05-29T07:53:48.540Z,2.30
2018-05-29T07:56:15.986Z,2.83
2018-05-29T07:58:43.484Z,2.65
2018-05-29T08:01:11.660Z,2.90
2018-05-29T08:03:39.123Z,2.78
2018-05-29T08:06:06.567Z,2.95
2018-05-29T08:08:34.018Z,3.03
2018-05-29T08:11:01.482Z,3.17
2018-05-29T08:13:29.693Z,2.95
2018-05-29T08:15:57.144Z,2.75
2018-05-29T08:18:24.607Z,3.22
2018-05-29T08:20:52.060Z,3.20
2018-05-29T08:23:19.531Z,3.00
2018-05-29T08:25:46.986Z,3.33
2018-05-29T08:28:14.427Z,2.90
2018-05-29T08:30:42.640Z,2.80
2018-05-29T08:33:10.095Z,3.20
2018-05-29T08:35:37.563Z,2.90
2018-05-29T08:38:05.003Z,3.03
2018-05-29T08:40:32.455Z,3.05
2018-05-29T08:43:00.667Z,2.97
2018-05-29T08:45:28.122Z,2.30
2018-05-29T08:47:55.566Z,2.70
2018-05-29T08:50:23.039Z,2.90
2018-05-29T08:52:50.502Z,2.92
2018-05-29T08:55:17.949Z,2.47
2018-05-29T08:57:46.177Z,2.80
2018-05-29T09:00:13.629Z,2.62
2018-05-29T09:02:41.078Z,2.00
2018-05-29T09:05:08.549Z,2.72
2018-05-29T09:07:35.987Z,2.62
2018-05-29T09:10:03.435Z,2.40
2018-05-29T09:12:31.644Z,2.12
2018-05-29T09:14:59.095Z,2.20
2018-05-29T09:17:26.536Z,2.67
2018-05-29T09:19:54.779Z,2.60
2018-05-29T09:22:22.233Z,2.58
2018-05-29T09:24:49.690Z,3.10
2018-05-29T09:27:17.149Z,2.67
2018-05-29T09:29:44.615Z,2.37
2018-05-29T09:32:12.049Z,2.42
2018-05-29T09:34:39.504Z,2.70
2018-05-29T09:37:06.941Z,2.40
2018-05-29T09:39:34.414Z,2.33
2018-05-29T09:42:02.621Z,2.83
2018-05-29T09:44:30.070Z,2.75
2018-05-29T09:46:57.534Z,3.03
2018-05-29T09:49:24.992Z,3.20
2018-05-29T09:51:53.206Z,3.10
2018-05-29T09:54:20.658Z,2.92
2018-05-29T09:56:48.115Z,2.85
2018-05-29T09:59:15.560Z,2.33
2018-05-29T10:01:43.024Z,2.50
2018-05-29T10:04:10.472Z,2.53
2018-05-29T10:06:37.935Z,2.87
2018-05-29T10:09:06.136Z,3.10
2018-05-29T10:11:33.593Z,2.90
2018-05-29T10:14:01.054Z,2.70
2018-05-29T10:16:28.513Z,2.50
2018-05-29T10:18:55.962Z,2.95
2018-05-29T10:21:24.183Z,2.55
2018-05-29T10:23:51.632Z,2.97
2018-05-29T10:26:19.091Z,2.50
2018-05-29T10:28:46.534Z,2.70
2018-05-29T10:31:14.008Z,3.28
2018-05-29T10:33:41.455Z,3.20
2018-05-29T10:36:09.681Z,2.97
2018-05-29T10:38:37.131Z,2.80
2018-05-29T10:41:04.597Z,3.10
2018-05-29T10:43:32.047Z,3.35
2018-05-29T10:45:59.540Z,3.30
2018-05-29T10:48:26.967Z,3.00
2018-05-29T10:50:54.421Z,3.10
2018-05-29T10:53:21.875Z,3.00
2018-05-29T10:55:50.082Z,3.15
2018-05-29T10:58:17.537Z,3.50
2018-05-29T11:00:44.984Z,3.03
2018-05-29T11:03:12.451Z,3.70
2018-05-29T11:05:40.676Z,2.75
2018-05-29T11:08:08.129Z,3.20
2018-05-29T11:10:35.591Z,3.25
2018-05-29T11:13:03.043Z,2.72
2018-05-29T11:15:30.502Z,2.58
2018-05-29T11:17:57.964Z,2.65
2018-05-29T11:20:25.392Z,3.08
2018-05-29T11:22:53.623Z,2.70
2018-05-29T11:25:21.084Z,2.85
2018-05-29T11:27:48.553Z,3.10
2018-05-29T11:30:16.008Z,2.67
2018-05-29T11:32:43.469Z,2.80
2018-05-29T11:35:10.916Z,2.60
2018-05-29T11:37:38.366Z,2.87
2018-05-29T11:40:05.817Z,2.58
2018-05-29T11:42:34.061Z,2.62
2018-05-29T11:45:01.472Z,2.80
2018-05-29T11:47:28.932Z,2.53
2018-05-29T11:49:56.387Z,2.67
2018-05-29T11:52:23.840Z,2.92
2018-05-29T11:54:52.085Z,2.60
2018-05-29T11:57:19.545Z,2.80
2018-05-29T11:59:48.135Z,2.83
2018-05-29T12:02:15.940Z,2.70
2018-05-29T12:04:44.324Z,2.50
2018-05-29T12:07:11.603Z,3.00
2018-05-29T12:09:39.049Z,2.40
2018-05-29T12:12:18.289Z,2.92
2018-05-29T12:14:45.729Z,3.90
2018-05-29T12:17:13.949Z,4.80
2018-05-29T12:19:41.400Z,4.28
2018-05-29T12:22:09.613Z,4.10
2018-05-29T12:24:37.065Z,4.72
2018-05-29T12:27:04.517Z,4.60
2018-05-29T12:29:31.965Z,5.30
2018-05-29T12:31:59.418Z,5.40
2018-05-29T12:34:26.853Z,5.53
2018-05-29T12:36:55.078Z,5.72
2018-05-29T12:39:22.515Z,4.47
2018-05-29T12:41:49.981Z,4.68
2018-05-29T12:44:17.431Z,4.62
2018-05-29T12:46:45.657Z,4.93
2018-05-29T12:49:13.108Z,5.12
2018-05-29T12:51:40.560Z,5.82
2018-05-29T12:54:08.027Z,4.97
2018-05-29T12:56:35.481Z,4.75
2018-05-29T12:59:02.954Z,4.90
2018-05-29T13:01:30.401Z,5.10
2018-05-29T13:03:57.854Z,4.65
2018-05-29T13:06:25.306Z,5.30
2018-05-29T13:08:53.535Z,4.62
2018-05-29T13:11:20.990Z,4.72
2018-05-29T13:13:48.431Z,4.10
2018-05-29T13:16:15.878Z,4.18
2018-05-29T13:18:44.136Z,3.80
2018-05-29T13:21:11.549Z,3.40
2018-05-29T13:23:39.013Z,4.10
2018-05-29T13:26:06.467Z,4.28
2018-05-29T13:28:33.931Z,5.03
2018-05-29T13:31:01.384Z,4.05
2018-05-29T13:33:28.853Z,3.55
2018-05-29T13:35:56.304Z,3.47
2018-05-29T13:38:23.764Z,3.25
2018-05-29T13:40:51.214Z,3.60
2018-05-29T13:43:19.437Z,3.53
2018-05-29T13:45:46.896Z,3.40
2018-05-29T13:48:14.343Z,3.05
2018-05-29T13:50:41.800Z,4.25
2018-05-29T13:53:09.257Z,4.10
2018-05-29T13:55:36.709Z,4.20
2018-05-29T13:58:04.167Z,4.50
2018-05-29T14:00:32.370Z,3.70
2018-05-29T14:02:59.820Z,3.30
2018-05-29T14:05:27.269Z,4.20
2018-05-29T14:07:55.503Z,3.40
2018-05-29T14:10:22.940Z,3.62
2018-05-29T14:12:50.401Z,3.75
2018-05-29T14:15:17.901Z,3.22
2018-05-29T14:17:45.366Z,3.33
2018-05-29T14:20:12.809Z,3.20
2018-05-29T14:22:40.278Z,3.05
2018-05-29T14:25:07.726Z,3.53
2018-05-29T14:27:35.946Z,3.45
2018-05-29T14:30:03.379Z,3.42
2018-05-29T14:32:30.835Z,3.53
2018-05-29T14:34:58.291Z,3.20
2018-05-29T14:37:25.774Z,3.20
2018-05-29T14:39:53.212Z,3.00
2018-05-29T14:42:20.666Z,2.92
2018-05-29T14:44:48.132Z,3.30
2018-05-29T14:47:15.594Z,3.33
2018-05-29T14:49:43.054Z,2.70
2018-05-29T14:52:10.497Z,3.60
2018-05-29T14:54:37.961Z,3.40
2018-05-29T14:57:06.165Z,3.05
2018-05-29T14:59:33.614Z,2.80
2018-05-29T15:02:01.081Z,2.78
2018-05-29T15:04:28.523Z,3.35
2018-05-29T15:06:56.732Z,3.33
2018-05-29T15:09:24.195Z,3.17
2018-05-29T15:11:51.632Z,3.22
2018-05-29T15:14:19.851Z,2.90
2018-05-29T15:16:47.307Z,3.00
2018-05-29T15:19:14.757Z,2.60
2018-05-29T15:21:42.213Z,3.10
2018-05-29T15:24:09.677Z,3.10
2018-05-29T15:26:37.123Z,3.22
2018-05-29T15:29:04.578Z,2.97
2018-05-29T15:31:32.787Z,2.58
2018-05-29T15:34:00.249Z,2.42
2018-05-29T15:36:27.706Z,2.70
2018-05-29T15:38:55.150Z,2.90
2018-05-29T15:41:22.592Z,3.10
2018-05-29T15:43:50.826Z,2.80
2018-05-29T15:46:18.275Z,2.65
2018-05-29T15:48:45.735Z,2.75
2018-05-29T15:51:13.176Z,2.62
2018-05-29T15:53:40.645Z,2.70
2018-05-29T15:56:08.097Z,3.00
2018-05-29T15:58:36.323Z,2.90
2018-05-29T16:01:03.784Z,2.70
2018-05-29T16:03:31.286Z,2.80
2018-05-29T16:05:58.738Z,2.72
2018-05-29T16:08:26.184Z,2.70
2018-05-29T16:10:53.652Z,2.40
2018-05-29T16:13:21.110Z,2.70
2018-05-29T16:15:48.565Z,2.97
2018-05-29T16:18:16.025Z,2.58
2018-05-29T16:20:43.487Z,2.83
2018-05-29T16:23:10.934Z,2.85
2018-05-29T16:25:38.391Z,2.60
2018-05-29T16:28:05.829Z,2.87
2018-05-29T16:30:33.310Z,2.70
2018-05-29T16:33:00.759Z,2.65
2018-05-29T16:35:28.240Z,3.25
2018-05-29T16:37:55.690Z,2.87
2018-05-29T16:40:23.164Z,2.83
2018-05-29T16:42:50.615Z,2.62
2018-05-29T16:45:18.070Z,2.67
2018-05-29T16:47:45.514Z,3.00
2018-05-29T16:50:13.733Z,2.80
2018-05-29T16:52:42.031Z,2.58
2018-05-29T16:55:09.490Z,3.10
2018-05-29T16:57:36.933Z,2.75
2018-05-29T17:00:04.395Z,2.58
2018-05-29T17:02:31.836Z,2.53
2018-05-29T17:05:00.067Z,2.30
2018-05-29T17:07:27.506Z,2.47
2018-05-29T17:09:54.964Z,2.40
2018-05-29T17:12:22.429Z,2.65
2018-05-29T17:14:49.905Z,3.03
2018-05-29T17:17:17.356Z,2.42
2018-05-29T17:19:44.823Z,2.40
2018-05-29T17:22:12.265Z,3.20
2018-05-29T17:24:39.708Z,2.80
2018-05-29T17:27:07.926Z,3.30
2018-05-29T17:29:35.380Z,2.80
2018-05-29T17:32:02.877Z,2.90
2018-05-29T17:34:30.288Z,2.65
2018-05-29T17:36:57.740Z,2.90
2018-05-29T17:39:25.972Z,2.80
2018-05-29T17:41:53.418Z,2.70
2018-05-29T17:44:20.919Z,3.00
2018-05-29T17:46:48.491Z,2.28
2018-05-29T17:49:15.970Z,2.92
2018-05-29T17:51:44.175Z,2.97
2018-05-29T17:54:11.621Z,2.90
2018-05-29T17:56:39.846Z,2.50
2018-05-29T17:59:07.306Z,2.22
2018-05-29T18:01:34.771Z,2.53
2018-05-29T18:04:02.254Z,2.42
2018-05-29T18:06:29.731Z,2.67
2018-05-29T18:08:57.990Z,2.67
2018-05-29T18:11:25.398Z,2.75
2018-05-29T18:13:52.854Z,2.90
2018-05-29T18:16:21.068Z,2.55
2018-05-29T18:18:48.533Z,2.60
2018-05-29T18:21:16.000Z,2.37
2018-05-29T18:23:43.435Z,2.70
2018-05-29T18:26:10.926Z,3.00
2018-05-29T18:28:38.373Z,2.72
2018-05-29T18:31:05.905Z,2.40
2018-05-29T18:33:33.297Z,2.92
2018-05-29T18:36:01.580Z,3.10
2018-05-29T18:38:29.025Z,2.80
2018-05-29T18:40:57.219Z,2.92
2018-05-29T18:43:24.691Z,2.80
2018-05-29T18:45:52.230Z,2.70
2018-05-29T18:48:19.736Z,2.92
2018-05-29T18:50:47.191Z,2.80
2018-05-29T18:53:14.650Z,3.08
2018-05-29T18:55:42.115Z,2.33
2018-05-29T18:58:09.593Z,2.50
2018-05-29T19:00:37.043Z,2.85
2018-05-29T19:03:04.497Z,2.90
2018-05-29T19:05:31.985Z,2.87
2018-05-29T19:07:59.457Z,2.70
2018-05-29T19:10:26.952Z,3.50
2018-05-29T19:12:54.409Z,3.15
2018-05-29T19:15:22.812Z,2.70
2018-05-29T19:17:50.280Z,2.53
2018-05-29T19:20:17.763Z,2.95
2018-05-29T19:22:45.273Z,3.12
2018-05-29T19:25:12.669Z,2.95
2018-05-29T19:27:40.110Z,2.85
2018-05-29T19:30:07.593Z,3.40
2018-05-29T19:32:35.071Z,3.25
2018-05-29T19:35:02.506Z,3.87
2018-05-29T19:37:29.986Z,4.18
2018-05-29T19:39:57.460Z,3.33
2018-05-29T19:42:24.908Z,3.53
2018-05-29T19:47:42.860Z,3.10
2018-05-29T19:50:10.315Z,3.28
2018-05-29T19:52:37.769Z,3.25
2018-05-29T19:55:05.235Z,2.85
2018-05-29T19:57:34.476Z,3.30
2018-05-29T20:00:02.185Z,3.08
2018-05-29T20:02:30.393Z,3.10
2018-05-29T20:04:57.920Z,3.20
2018-05-29T20:07:26.137Z,3.28
2018-05-29T20:09:53.586Z,3.15
2018-05-29T20:12:21.056Z,3.15
2018-05-29T20:14:48.498Z,3.85
2018-05-29T20:17:15.957Z,3.30
2018-05-29T20:19:43.410Z,3.47
2018-05-29T20:22:11.636Z,3.20
2018-05-29T20:24:39.084Z,2.95
2018-05-29T20:27:06.578Z,3.30
2018-05-29T20:29:34.030Z,3.35
2018-05-29T20:32:01.493Z,3.40
2018-05-29T20:34:28.953Z,3.33
2018-05-29T20:36:56.431Z,3.78
2018-05-29T20:39:23.890Z,3.55
2018-05-29T20:41:51.341Z,3.47
2018-05-29T20:44:18.845Z,3.42
2018-05-29T20:46:47.138Z,3.58
2018-05-29T20:49:15.348Z,3.87
2018-05-29T20:51:42.800Z,4.18
2018-05-29T20:54:10.269Z,3.30
2018-05-29T20:56:37.724Z,3.97
2018-05-29T20:59:05.195Z,3.92
2018-05-29T21:01:32.630Z,3.95
2018-05-29T21:04:00.912Z,4.25
2018-05-29T21:06:29.124Z,3.70
2018-05-29T21:08:56.599Z,4.07
2018-05-29T21:11:24.063Z,3.45
2018-05-29T21:13:51.547Z,3.75
2018-05-29T21:16:19.025Z,4.03
2018-05-29T21:18:46.491Z,3.95
2018-05-29T21:21:13.927Z,3.92
2018-05-29T21:23:41.373Z,4.12
2018-05-29T21:26:08.830Z,4.35
2018-05-29T21:28:36.286Z,3.95
2018-05-29T21:31:03.845Z,4.72
2018-05-29T21:33:31.301Z,4.55
2018-05-29T21:35:58.768Z,4.35
2018-05-29T21:38:26.226Z,4.62
2018-05-29T21:40:53.693Z,4.35
2018-05-29T21:43:21.159Z,4.62
2018-05-29T21:45:48.631Z,4.82
2018-05-29T21:48:16.077Z,5.18
2018-05-29T21:50:43.545Z,4.60
2018-05-29T21:53:10.994Z,5.07
2018-05-29T21:55:38.458Z,5.30
2018-05-29T21:58:05.898Z,5.10
2018-05-29T22:00:34.146Z,5.00
2018-05-29T22:03:01.592Z,4.55
2018-05-29T22:05:29.042Z,4.53
2018-05-29T22:07:56.533Z,4.65
2018-05-29T22:10:23.996Z,4.65
2018-05-29T22:12:51.466Z,4.40
2018-05-29T22:15:19.368Z,4.45
2018-05-29T22:17:46.842Z,4.78
2018-05-29T22:20:14.300Z,4.65
2018-05-29T22:22:41.777Z,4.80
2018-05-29T22:25:09.262Z,5.22
2018-05-29T22:27:36.728Z,4.65
2018-05-29T22:30:04.192Z,4.53
2018-05-29T22:32:31.653Z,4.75
2018-05-29T22:34:59.135Z,4.78
2018-05-29T22:37:26.619Z,4.40
2018-05-29T22:39:54.067Z,4.70
2018-05-29T22:42:21.564Z,4.60
2018-05-29T22:44:49.806Z,4.85
2018-05-29T22:47:17.475Z,4.95
2018-05-29T22:49:44.935Z,4.43
2018-05-29T22:52:12.460Z,4.32
2018-05-29T22:54:39.928Z,4.90
2018-05-29T22:57:07.382Z,5.53
2018-05-29T22:59:34.860Z,4.75
2018-05-29T23:02:02.300Z,4.15
2018-05-29T23:04:29.972Z,4.18
2018-05-29T23:06:57.433Z,4.35
2018-05-29T23:09:24.887Z,4.50
2018-05-29T23:11:52.324Z,4.28
2018-05-29T23:31:37.415Z,4.40
2018-05-29T23:34:04.865Z,4.47
2018-05-29T23:36:32.310Z,4.30
2018-05-29T23:38:59.787Z,4.10
2018-05-29T23:41:27.256Z,3.75
2018-05-29T23:43:54.704Z,4.20
2018-05-29T23:46:22.147Z,4.20
2018-05-29T23:48:49.625Z,4.57
2018-05-29T23:51:17.069Z,4.10
2018-05-29T23:53:44.514Z,3.85
2018-05-29T23:56:11.967Z,4.43
2018-05-29T23:58:39.421Z,4.40
